createdAt,value
2018-10-21T00:00:12.922Z,70.53
2018-10-21T00:02:42.597Z,67.97
2018-10-21T00:05:12.842Z,70.87
2018-10-21T00:07:42.415Z,65.60
2018-10-21T00:10:12.298Z,60.80
2018-10-21T00:12:41.948Z,61.30
2018-10-21T00:15:21.823Z,60.30
2018-10-21T00:17:51.455Z,68.87
2018-10-21T00:20:21.419Z,70.43
2018-10-21T00:22:51.784Z,62.13
2018-10-21T00:25:22.433Z,64.53
2018-10-21T00:27:52.379Z,59.60
2018-10-21T00:30:22.024Z,63.70
2018-10-21T00:32:52.596Z,67.40
2018-10-21T00:35:22.379Z,64.73
2018-10-21T00:37:52.044Z,64.97
2018-10-21T00:40:21.703Z,60.73
2018-10-21T00:42:51.310Z,60.33
2018-10-21T00:45:20.977Z,64.43
2018-10-21T00:47:50.538Z,61.97
2018-10-21T00:50:20.738Z,63.90
2018-10-21T00:52:50.761Z,65.03
2018-10-21T00:55:20.783Z,64.53
2018-10-21T00:57:50.545Z,62.40
2018-10-21T01:00:21.152Z,59.77
2018-10-21T01:02:51.455Z,63.40
2018-10-21T01:05:21.126Z,62.30
2018-10-21T01:07:50.905Z,59.70
2018-10-21T01:10:20.670Z,58.33
2018-10-21T01:12:50.374Z,62.93
2018-10-21T01:15:20.483Z,60.57
2018-10-21T01:17:50.322Z,62.40
2018-10-21T01:20:20.757Z,64.33
2018-10-21T01:22:51.046Z,65.80
2018-10-21T01:25:22.816Z,61.27
2018-10-21T01:27:52.419Z,65.73
2018-10-21T01:30:22.035Z,67.03
2018-10-21T01:32:51.707Z,67.77
2018-10-21T01:35:21.362Z,67.03
2018-10-21T01:37:51.241Z,69.10
2018-10-21T01:40:37.513Z,71.07
2018-10-21T01:43:09.359Z,66.53
2018-10-21T01:45:44.724Z,69.33
2018-10-21T01:48:15.238Z,65.23
2018-10-21T01:50:44.590Z,68.07
2018-10-21T01:53:15.023Z,59.23
2018-10-21T01:55:44.365Z,62.10
2018-10-21T01:58:13.682Z,68.07
2018-10-21T02:00:43.533Z,58.37
2018-10-21T02:03:28.926Z,66.93
2018-10-21T02:05:58.277Z,59.07
2018-10-21T02:08:27.581Z,60.83
2018-10-21T02:10:56.888Z,67.67
2018-10-21T02:13:26.214Z,59.13
2018-10-21T02:15:55.555Z,61.57
2018-10-21T02:18:24.877Z,65.70
2018-10-21T02:20:54.257Z,65.00
2018-10-21T02:23:23.531Z,63.30
2018-10-21T02:25:52.864Z,56.73
2018-10-21T02:28:22.197Z,60.87
2018-10-21T02:30:51.490Z,65.03
2018-10-21T02:33:47.861Z,65.93
2018-10-21T02:36:17.177Z,71.83
2018-10-21T02:38:46.566Z,73.73
2018-10-21T02:41:36.998Z,74.83
2018-10-21T02:44:08.039Z,68.83
2018-10-21T02:46:37.977Z,68.60
2018-10-21T02:49:17.726Z,63.77
2018-10-21T02:51:52.322Z,65.27
2018-10-21T02:54:23.222Z,142.77
2018-10-21T02:56:52.846Z,100.47
2018-10-21T02:59:22.822Z,87.00
2018-10-21T03:01:52.178Z,152.73
2018-10-21T03:04:21.834Z,164.83
2018-10-21T03:06:51.549Z,83.83
2018-10-21T03:09:21.137Z,95.47
2018-10-21T03:11:50.437Z,110.40
2018-10-21T03:14:19.765Z,85.83
2018-10-21T03:16:49.137Z,85.53
2018-10-21T03:19:18.459Z,81.23
2018-10-21T03:21:48.053Z,80.90
2018-10-21T03:24:17.750Z,81.70
2018-10-21T03:26:48.088Z,77.67
2018-10-21T03:29:17.419Z,74.17
2018-10-21T03:31:46.747Z,78.47
2018-10-21T03:34:16.051Z,79.30
2018-10-21T03:36:45.360Z,87.30
2018-10-21T03:39:37.044Z,93.43
2018-10-21T03:42:06.395Z,91.77
2018-10-21T03:44:35.702Z,81.50
2018-10-21T03:47:05.055Z,125.60
2018-10-21T03:49:34.353Z,116.10
2018-10-21T03:52:03.756Z,170.63
2018-10-21T03:54:33.050Z,261.23
2018-10-21T03:57:02.350Z,206.93
2018-10-21T03:59:31.658Z,189.93
2018-10-21T04:02:01.022Z,223.80
2018-10-21T04:04:30.326Z,236.63
2018-10-21T04:06:59.633Z,140.07
2018-10-21T04:09:28.973Z,173.03
2018-10-21T04:11:58.278Z,218.40
2018-10-21T04:14:27.584Z,248.23
2018-10-21T04:16:56.930Z,137.07
2018-10-21T04:19:26.230Z,106.43
2018-10-21T04:21:55.552Z,133.23
2018-10-21T04:24:24.884Z,135.47
2018-10-21T04:26:54.194Z,113.47
2018-10-21T04:29:23.523Z,119.30
2018-10-21T04:31:52.851Z,96.43
2018-10-21T04:34:22.163Z,149.10
2018-10-21T04:36:51.530Z,160.57
2018-10-21T04:39:38.710Z,114.03
2018-10-21T04:42:08.030Z,120.37
2018-10-21T04:44:37.353Z,144.50
2018-10-21T04:47:07.082Z,155.87
2018-10-21T04:49:36.263Z,109.63
2018-10-21T04:52:05.634Z,88.53
2018-10-21T04:54:34.954Z,85.00
2018-10-21T04:57:16.634Z,75.40
2018-10-21T04:59:45.974Z,69.40
2018-10-21T05:02:15.290Z,58.50
2018-10-21T05:04:44.586Z,53.33
2018-10-21T05:07:13.929Z,50.90
2018-10-21T05:09:43.226Z,49.17
2018-10-21T05:12:12.557Z,47.13
2018-10-21T05:14:41.906Z,53.10
2018-10-21T05:17:11.226Z,50.97
2018-10-21T05:19:40.541Z,48.70
2018-10-21T05:22:09.915Z,45.70
2018-10-21T05:24:39.202Z,48.67
2018-10-21T05:27:08.981Z,47.57
2018-10-21T05:29:38.302Z,44.23
2018-10-21T05:32:07.610Z,48.57
2018-10-21T05:34:36.927Z,57.20
2018-10-21T05:37:07.210Z,50.70
2018-10-21T05:39:36.574Z,47.90
2018-10-21T05:42:05.957Z,48.70
2018-10-21T05:44:35.283Z,45.97
2018-10-21T05:47:04.609Z,47.93
2018-10-21T05:49:33.936Z,53.73
2018-10-21T05:52:03.308Z,50.07
2018-10-21T05:54:34.798Z,53.43
2018-10-21T05:57:04.130Z,48.53
2018-10-21T05:59:33.427Z,53.17
2018-10-21T06:02:02.775Z,52.50
2018-10-21T06:04:32.237Z,54.10
2018-10-21T06:07:01.612Z,53.30
2018-10-21T06:09:30.960Z,57.97
2018-10-21T06:12:00.307Z,53.47
2018-10-21T06:14:29.611Z,48.97
2018-10-21T06:17:05.370Z,53.50
2018-10-21T06:19:39.461Z,58.60
2018-10-21T06:22:08.818Z,58.33
2018-10-21T06:24:38.149Z,53.87
2018-10-21T06:27:07.538Z,55.83
2018-10-21T06:29:36.857Z,62.70
2018-10-21T06:32:06.211Z,57.47
2018-10-21T06:34:55.016Z,65.87
2018-10-21T06:37:24.334Z,61.10
2018-10-21T06:39:53.698Z,66.27
2018-10-21T06:42:23.033Z,68.17
2018-10-21T06:44:52.454Z,58.33
2018-10-21T06:47:21.761Z,60.93
2018-10-21T06:49:51.090Z,66.70
2018-10-21T06:52:20.409Z,61.63
2018-10-21T06:54:49.701Z,65.73
2018-10-21T06:57:19.270Z,59.03
2018-10-21T06:59:48.359Z,66.67
2018-10-21T07:02:17.679Z,61.67
2018-10-21T07:04:47.073Z,59.07
2018-10-21T07:07:16.838Z,64.23
2018-10-21T07:09:46.145Z,66.13
2018-10-21T07:12:15.473Z,63.77
2018-10-21T07:15:09.225Z,65.43
2018-10-21T07:17:38.554Z,63.87
2018-10-21T07:20:08.194Z,56.30
2018-10-21T07:22:37.546Z,63.53
2018-10-21T07:25:08.131Z,58.63
2018-10-21T07:27:49.563Z,61.60
2018-10-21T07:30:18.874Z,56.93
2018-10-21T07:32:48.226Z,58.10
2018-10-21T07:35:17.561Z,59.43
2018-10-21T07:37:46.915Z,59.20
2018-10-21T07:40:23.171Z,62.87
2018-10-21T07:42:52.541Z,55.10
2018-10-21T07:45:21.888Z,57.27
2018-10-21T07:47:51.263Z,58.13
2018-10-21T07:50:30.782Z,53.13
2018-10-21T07:53:00.123Z,57.13
2018-10-21T07:55:29.464Z,57.07
2018-10-21T07:57:58.861Z,55.57
2018-10-21T08:00:28.222Z,53.17
2018-10-21T08:02:57.727Z,55.57
2018-10-21T08:05:44.104Z,53.87
2018-10-21T08:08:16.586Z,51.00
2018-10-21T08:10:52.390Z,55.17
2018-10-21T08:13:23.191Z,54.93
2018-10-21T08:15:52.529Z,53.63
2018-10-21T08:18:21.892Z,50.93
2018-10-21T08:20:51.755Z,52.10
2018-10-21T08:23:21.115Z,51.70
2018-10-21T08:25:51.111Z,49.63
2018-10-21T08:28:20.467Z,51.77
2018-10-21T08:30:49.796Z,46.83
2018-10-21T08:33:24.545Z,46.50
2018-10-21T08:35:53.908Z,53.53
2018-10-21T08:38:23.174Z,50.97
2018-10-21T08:40:52.513Z,53.40
2018-10-21T08:43:21.826Z,54.20
2018-10-21T08:45:51.141Z,49.33
2018-10-21T08:48:20.508Z,45.77
2018-10-21T08:50:49.950Z,46.97
2018-10-21T08:53:19.281Z,52.00
2018-10-21T08:56:19.849Z,44.90
2018-10-21T08:58:49.161Z,46.47
2018-10-21T09:01:18.548Z,45.43
2018-10-21T09:03:47.826Z,45.33
2018-10-21T09:09:20.798Z,44.17
2018-10-21T09:12:20.979Z,39.90
2018-10-21T09:14:50.366Z,43.30
2018-10-21T09:17:19.665Z,44.00
2018-10-21T09:19:49.009Z,42.97
2018-10-21T09:22:18.414Z,42.17
2018-10-21T09:24:47.703Z,43.03
2018-10-21T09:27:17.709Z,45.23
2018-10-21T09:29:47.035Z,41.17
2018-10-21T09:32:16.363Z,40.83
2018-10-21T09:34:45.698Z,38.17
2018-10-21T09:37:15.043Z,45.30
2018-10-21T09:39:44.976Z,42.30
2018-10-21T09:42:14.393Z,38.20
2018-10-21T09:44:43.929Z,37.90
2018-10-21T09:47:13.281Z,41.63
2018-10-21T09:49:42.715Z,41.37
2018-10-21T09:52:12.669Z,41.10
2018-10-21T09:54:41.910Z,38.17
2018-10-21T09:57:11.297Z,42.17
2018-10-21T09:59:40.615Z,42.03
2018-10-21T10:02:15.173Z,42.20
2018-10-21T10:04:44.530Z,40.93
2018-10-21T10:07:13.859Z,40.77
2018-10-21T10:09:46.330Z,39.70
2018-10-21T10:12:15.654Z,35.87
2018-10-21T10:14:44.958Z,44.07
2018-10-21T10:17:14.282Z,39.43
2018-10-21T10:19:43.588Z,36.43
2018-10-21T10:22:12.995Z,39.90
2018-10-21T10:24:42.274Z,40.57
2018-10-21T10:27:11.603Z,36.80
2018-10-21T10:29:40.950Z,37.00
2018-10-21T10:32:10.286Z,39.17
2018-10-21T10:34:39.694Z,35.27
2018-10-21T10:37:09.060Z,39.63
2018-10-21T10:39:38.357Z,38.00
2018-10-21T10:42:07.943Z,34.07
2018-10-21T10:47:38.833Z,32.17
2018-10-21T10:50:10.573Z,40.80
2018-10-21T10:52:46.161Z,37.50
2018-10-21T10:55:15.672Z,34.50
2018-10-21T10:57:45.356Z,34.37
2018-10-21T11:00:14.805Z,32.17
2018-10-21T11:02:44.059Z,33.33
2018-10-21T11:05:13.370Z,34.30
2018-10-21T11:07:45.156Z,32.43
2018-10-21T11:10:15.897Z,31.10
2018-10-21T11:12:47.104Z,29.87
2018-10-21T11:15:16.502Z,20.57
2018-10-21T11:21:05.825Z,21.60
2018-10-21T11:23:35.158Z,20.50
2018-10-21T11:26:04.826Z,22.13
2018-10-21T11:28:39.991Z,22.00
2018-10-21T11:31:09.367Z,18.67
2018-10-21T11:33:38.641Z,20.80
2018-10-21T11:36:08.045Z,17.50
2018-10-21T11:38:44.326Z,21.37
2018-10-21T11:41:13.669Z,20.93
2018-10-21T11:43:43.055Z,20.33
2018-10-21T11:46:12.492Z,22.50
2018-10-21T11:48:41.734Z,19.73
2018-10-21T11:51:17.791Z,23.53
2018-10-21T11:53:47.133Z,22.93
2018-10-21T11:56:34.363Z,23.00
2018-10-21T11:59:03.816Z,23.27
2018-10-21T12:01:33.193Z,21.37
2018-10-21T12:04:02.645Z,20.90
2018-10-21T12:06:33.019Z,23.00
2018-10-21T12:09:13.517Z,24.87
2018-10-21T12:11:43.922Z,22.57
2018-10-21T12:14:26.289Z,23.40
2018-10-21T12:16:55.882Z,21.07
2018-10-21T12:19:44.412Z,25.67
2018-10-21T12:22:13.852Z,24.33
2018-10-21T12:24:53.312Z,23.30
2018-10-21T12:27:22.698Z,26.43
2018-10-21T12:29:52.027Z,26.03
2018-10-21T12:32:21.437Z,22.93
2018-10-21T12:34:50.793Z,24.43
2018-10-21T12:37:20.143Z,26.73
2018-10-21T12:39:49.463Z,26.17
2018-10-21T12:42:18.802Z,27.03
2018-10-21T12:44:48.178Z,23.93
2018-10-21T12:47:17.525Z,26.50
2018-10-21T12:49:48.258Z,23.03
2018-10-21T12:52:17.638Z,23.07
2018-10-21T12:54:51.258Z,25.77
2018-10-21T12:57:23.999Z,23.50
2018-10-21T12:59:53.334Z,24.17
2018-10-21T13:02:32.997Z,23.73
2018-10-21T13:05:02.330Z,26.83
2018-10-21T13:07:31.700Z,26.80
2018-10-21T13:10:01.085Z,23.93
2018-10-21T13:12:30.416Z,21.07
2018-10-21T13:15:19.728Z,25.17
2018-10-21T13:17:49.067Z,22.43
2018-10-21T13:20:18.386Z,23.57
2018-10-21T13:25:53.754Z,20.43
2018-10-21T13:28:23.226Z,26.43
2018-10-21T13:30:52.411Z,18.10
2018-10-21T13:33:21.734Z,18.87
2018-10-21T13:35:51.069Z,20.57
2018-10-21T13:38:20.374Z,24.67
2018-10-21T13:40:49.733Z,22.53
2018-10-21T13:43:19.311Z,23.77
2018-10-21T13:45:48.655Z,26.23
2018-10-21T13:48:18.588Z,23.57
2018-10-21T13:50:47.934Z,20.03
2018-10-21T13:53:17.330Z,21.03
2018-10-21T13:55:52.358Z,21.20
2018-10-21T13:58:21.789Z,21.83
2018-10-21T14:00:51.125Z,21.27
2018-10-21T14:03:20.471Z,19.80
2018-10-21T14:05:49.774Z,29.50
2018-10-21T14:08:19.129Z,18.17
2018-10-21T14:11:01.085Z,20.07
2018-10-21T14:13:30.413Z,22.97
2018-10-21T14:15:59.855Z,18.13
2018-10-21T14:18:41.512Z,20.30
2018-10-21T14:21:10.841Z,20.00
2018-10-21T14:23:40.159Z,19.33
2018-10-21T14:26:16.698Z,20.90
2018-10-21T14:28:46.626Z,19.37
2018-10-21T14:31:15.962Z,20.47
2018-10-21T14:33:45.309Z,17.10
2018-10-21T14:36:14.663Z,17.43
2018-10-21T14:38:44.049Z,18.53
2018-10-21T14:41:13.429Z,18.83
2018-10-21T14:43:43.073Z,16.37
2018-10-21T14:46:24.925Z,15.80
2018-10-21T14:48:54.259Z,16.23
2018-10-21T14:51:24.622Z,13.33
2018-10-21T14:53:53.942Z,13.17
2018-10-21T14:56:42.022Z,14.37
2018-10-21T14:59:11.347Z,16.47
2018-10-21T15:01:40.683Z,16.47
2018-10-21T15:04:10.024Z,14.20
2018-10-21T15:06:39.357Z,15.90
2018-10-21T15:09:12.399Z,15.40
2018-10-21T15:11:43.217Z,14.67
2018-10-21T15:14:13.122Z,14.80
2018-10-21T15:16:42.401Z,16.17
2018-10-21T15:19:11.805Z,13.47
2018-10-21T15:21:41.275Z,12.77
2018-10-21T15:24:39.434Z,12.53
2018-10-21T15:27:31.134Z,10.20
2018-10-21T15:30:19.811Z,11.23
2018-10-21T15:32:49.117Z,10.80
2018-10-21T15:35:18.482Z,11.03
2018-10-21T15:37:47.814Z,12.20
2018-10-21T15:40:17.196Z,10.83
2018-10-21T15:42:46.532Z,10.43
2018-10-21T15:45:15.830Z,10.10
2018-10-21T15:47:45.202Z,10.57
2018-10-21T15:50:14.726Z,10.77
2018-10-21T15:52:58.278Z,10.60
2018-10-21T15:55:27.689Z,8.50
2018-10-21T15:57:57.046Z,13.63
2018-10-21T16:00:40.534Z,10.07
2018-10-21T16:03:09.830Z,9.43
2018-10-21T16:06:03.469Z,11.73
2018-10-21T16:08:36.842Z,10.10
2018-10-21T16:11:06.973Z,8.33
2018-10-21T16:13:39.961Z,11.17
2018-10-21T16:16:17.092Z,12.53
2018-10-21T16:18:58.854Z,11.20
2018-10-21T16:21:57.145Z,11.93
2018-10-21T16:24:26.445Z,9.73
2018-10-21T16:27:02.554Z,10.83
2018-10-21T16:29:36.890Z,10.00
2018-10-21T16:32:07.307Z,10.00
2018-10-21T16:37:37.623Z,10.37
2018-10-21T16:43:11.762Z,10.03
2018-10-21T16:45:48.328Z,10.07
2018-10-21T16:48:23.279Z,12.77
2018-10-21T16:53:58.136Z,11.57
2018-10-21T16:59:32.477Z,11.10
2018-10-21T17:02:01.799Z,10.37
2018-10-21T17:04:41.521Z,12.27
2018-10-21T17:07:10.926Z,11.30
2018-10-21T17:09:41.505Z,13.90
2018-10-21T17:12:10.601Z,11.93
2018-10-21T17:14:44.270Z,12.87
2018-10-21T17:17:14.058Z,10.53
2018-10-21T17:19:55.677Z,10.93
2018-10-21T17:22:25.017Z,15.93
2018-10-21T17:25:12.139Z,12.83
2018-10-21T17:27:41.577Z,13.77
2018-10-21T17:30:14.586Z,11.37
2018-10-21T17:32:44.791Z,10.23
2018-10-21T17:35:14.158Z,12.83
2018-10-21T17:37:43.559Z,9.90
2018-10-21T17:43:37.990Z,10.50
2018-10-21T17:46:07.527Z,10.60
2018-10-21T17:48:36.857Z,12.27
2018-10-21T17:51:06.584Z,10.93
2018-10-21T17:53:41.681Z,9.80
2018-10-21T17:59:13.362Z,12.13
2018-10-21T18:02:04.152Z,10.63
2018-10-21T18:07:33.352Z,10.10
2018-10-21T18:10:02.891Z,14.13
2018-10-21T18:12:38.478Z,10.57
2018-10-21T18:15:09.243Z,11.57
2018-10-21T18:18:08.649Z,10.63
2018-10-21T18:20:38.101Z,11.03
2018-10-21T18:23:15.409Z,8.97
2018-10-21T18:25:49.968Z,12.30
2018-10-21T18:28:20.384Z,10.10
2018-10-21T18:30:50.324Z,14.03
2018-10-21T18:33:38.218Z,9.47
2018-10-21T18:39:11.130Z,12.77
2018-10-21T18:41:40.498Z,9.27
2018-10-21T18:44:10.405Z,8.73
2018-10-21T18:46:45.390Z,8.30
2018-10-21T18:49:27.643Z,12.77
2018-10-21T18:51:57.945Z,10.20
2018-10-21T18:54:27.314Z,10.13
2018-10-21T18:57:04.985Z,12.77
2018-10-21T18:59:59.102Z,10.17
2018-10-21T19:02:28.449Z,9.60
2018-10-21T19:05:23.407Z,10.63
2018-10-21T19:07:53.206Z,9.10
2018-10-21T19:10:22.703Z,9.93
2018-10-21T19:13:00.056Z,9.37
2018-10-21T19:15:24.937Z,10.47
2018-10-21T19:18:00.270Z,12.90
2018-10-21T19:20:29.571Z,10.73
2018-10-21T19:22:58.992Z,9.73
2018-10-21T19:25:37.954Z,11.70
2018-10-21T19:28:07.309Z,10.40
2018-10-21T19:30:36.621Z,9.57
2018-10-21T19:33:06.557Z,9.97
2018-10-21T19:35:35.906Z,10.47
2018-10-21T19:38:05.263Z,9.20
2018-10-21T19:40:34.597Z,9.80
2018-10-21T19:43:04.026Z,9.93
2018-10-21T19:45:33.265Z,9.80
2018-10-21T19:48:02.585Z,14.37
2018-10-21T19:50:31.976Z,13.03
2018-10-21T19:56:05.259Z,15.60
2018-10-21T20:04:56.293Z,12.70
2018-10-21T20:07:26.173Z,12.50
2018-10-21T20:09:56.686Z,15.20
2018-10-21T20:12:29.383Z,12.87
2018-10-21T20:15:12.049Z,11.40
2018-10-21T20:17:44.233Z,10.40
2018-10-21T20:20:20.951Z,12.37
2018-10-21T20:22:50.302Z,12.07
2018-10-21T20:25:21.237Z,10.67
2018-10-21T20:27:50.714Z,11.33
2018-10-21T20:30:20.095Z,11.40
2018-10-21T20:32:50.253Z,11.07
2018-10-21T20:35:20.414Z,10.67
2018-10-21T20:37:51.005Z,9.53
2018-10-21T20:40:22.727Z,11.40
2018-10-21T20:42:55.673Z,9.00
2018-10-21T20:45:25.318Z,9.67
2018-10-21T20:48:00.655Z,9.47
2018-10-21T20:50:30.256Z,9.50
2018-10-21T20:52:59.583Z,14.73
2018-10-21T20:55:29.872Z,8.60
2018-10-21T20:57:59.389Z,7.07
2018-10-21T21:00:28.823Z,7.40
2018-10-21T21:03:23.145Z,8.60
2018-10-21T21:05:53.006Z,8.57
2018-10-21T21:08:22.389Z,10.83
2018-10-21T21:10:57.061Z,8.90
2018-10-21T21:13:28.705Z,8.90
2018-10-21T21:16:01.441Z,8.43
2018-10-21T21:18:30.926Z,9.13
2018-10-21T21:21:00.309Z,7.83
2018-10-21T21:23:39.861Z,8.60
2018-10-21T21:26:09.151Z,9.63
2018-10-21T21:28:38.678Z,9.13
2018-10-21T21:31:08.513Z,11.13
2018-10-21T21:33:38.402Z,9.27
2018-10-21T21:36:11.787Z,9.10
2018-10-21T21:38:42.233Z,8.30
2018-10-21T21:41:11.638Z,8.90
2018-10-21T21:44:11.794Z,9.93
2018-10-21T21:46:51.309Z,8.93
2018-10-21T21:49:21.998Z,9.40
2018-10-21T21:51:51.503Z,10.50
2018-10-21T21:54:23.697Z,10.07
2018-10-21T21:56:53.425Z,8.03
2018-10-21T21:59:24.730Z,8.80
2018-10-21T22:01:54.153Z,8.50
2018-10-21T22:04:23.625Z,9.37
2018-10-21T22:07:09.929Z,8.20
2018-10-21T22:09:39.999Z,10.50
2018-10-21T22:12:09.941Z,7.87
2018-10-21T22:14:39.270Z,10.07
2018-10-21T22:17:08.577Z,10.23
2018-10-21T22:19:37.887Z,9.07
2018-10-21T22:22:23.613Z,7.80
2018-10-21T22:24:52.933Z,11.30
2018-10-21T22:27:26.054Z,9.23
2018-10-21T22:29:55.802Z,8.17
2018-10-21T22:32:27.489Z,9.83
2018-10-21T22:34:58.961Z,7.90
2018-10-21T22:37:36.468Z,8.73
2018-10-21T22:40:08.968Z,9.63
2018-10-21T22:42:43.793Z,8.20
2018-10-21T22:45:13.124Z,7.03
2018-10-21T22:47:45.194Z,7.33
2018-10-21T22:50:14.782Z,9.63
2018-10-21T22:52:45.430Z,7.37
2018-10-21T22:55:14.746Z,8.47
2018-10-21T22:57:48.205Z,8.27
2018-10-21T23:00:17.660Z,7.27
2018-10-21T23:02:51.126Z,9.50
2018-10-21T23:05:25.471Z,9.20
2018-10-21T23:07:55.027Z,9.63
2018-10-21T23:10:28.029Z,9.47
2018-10-21T23:12:57.497Z,7.67
2018-10-21T23:15:26.830Z,9.77
2018-10-21T23:17:56.414Z,7.83
2018-10-21T23:20:25.724Z,9.13
2018-10-21T23:22:56.474Z,7.50
2018-10-21T23:25:40.545Z,8.57
2018-10-21T23:28:09.925Z,8.00
2018-10-21T23:30:39.258Z,7.13
2018-10-21T23:33:21.958Z,8.60
2018-10-21T23:35:51.581Z,7.37
2018-10-21T23:38:21.173Z,9.00
2018-10-21T23:40:50.485Z,8.60
2018-10-21T23:43:19.838Z,7.03
2018-10-21T23:45:49.147Z,8.80
2018-10-21T23:48:18.673Z,10.17
2018-10-21T23:50:51.404Z,6.27
2018-10-21T23:53:25.718Z,8.47
2018-10-21T23:55:59.233Z,7.93
2018-10-21T23:58:29.254Z,7.43
